sensor_id;sensor_type;location;lat;lon;timestamp;pressure;altitude;pressure_sealevel;temperature;humidity
63395;BME280;49531;-34.520;150.798;2024-03-06T00:01:01;101099.22;;;26.51;51.68
63395;BME280;49531;-34.520;150.798;2024-03-06T00:03:28;101093.69;;;26.56;51.49
63395;BME280;49531;-34.520;150.798;2024-03-06T00:05:55;101094.22;;;26.58;51.29
63395;BME280;49531;-34.520;150.798;2024-03-06T00:08:22;101091.78;;;26.57;51.33
63395;BME280;49531;-34.520;150.798;2024-03-06T00:10:49;101094.16;;;26.64;51.18
63395;BME280;49531;-34.520;150.798;2024-03-06T00:13:17;101092.41;;;26.73;51.09
63395;BME280;49531;-34.520;150.798;2024-03-06T00:15:44;101089.59;;;26.78;51.16
63395;BME280;49531;-34.520;150.798;2024-03-06T00:18:11;101077.53;;;26.79;50.79
63395;BME280;49531;-34.520;150.798;2024-03-06T00:20:38;101095.34;;;27.00;50.82
63395;BME280;49531;-34.520;150.798;2024-03-06T00:23:08;101064.16;;;26.96;50.75
63395;BME280;49531;-34.520;150.798;2024-03-06T00:25:35;101087.00;;;27.10;50.15
63395;BME280;49531;-34.520;150.798;2024-03-06T00:28:02;101075.50;;;27.08;50.36
63395;BME280;49531;-34.520;150.798;2024-03-06T00:30:30;101076.84;;;27.11;50.21
63395;BME280;49531;-34.520;150.798;2024-03-06T00:32:57;101066.47;;;27.08;49.98
63395;BME280;49531;-34.520;150.798;2024-03-06T00:35:25;101076.91;;;27.24;49.67
63395;BME280;49531;-34.520;150.798;2024-03-06T00:37:52;101071.63;;;27.28;49.75
63395;BME280;49531;-34.520;150.798;2024-03-06T00:40:20;101059.69;;;27.38;49.83
63395;BME280;49531;-34.520;150.798;2024-03-06T00:42:47;101046.41;;;27.45;49.66
63395;BME280;49531;-34.520;150.798;2024-03-06T00:45:14;101030.69;;;27.50;49.84
63395;BME280;49531;-34.520;150.798;2024-03-06T00:47:41;101032.44;;;27.60;49.86
63395;BME280;49531;-34.520;150.798;2024-03-06T00:50:09;101034.59;;;27.63;49.76
63395;BME280;49531;-34.520;150.798;2024-03-06T00:52:36;101035.63;;;27.67;49.59
63395;BME280;49531;-34.520;150.798;2024-03-06T00:55:03;101046.59;;;27.67;49.33
63395;BME280;49531;-34.520;150.798;2024-03-06T00:57:31;101037.84;;;27.65;49.61
63395;BME280;49531;-34.520;150.798;2024-03-06T00:59:58;101032.34;;;27.65;49.59
63395;BME280;49531;-34.520;150.798;2024-03-06T01:02:26;101024.22;;;27.60;49.65
63395;BME280;49531;-34.520;150.798;2024-03-06T01:04:53;101024.56;;;27.72;49.50
63395;BME280;49531;-34.520;150.798;2024-03-06T01:07:20;101021.00;;;27.72;49.57
63395;BME280;49531;-34.520;150.798;2024-03-06T01:09:47;101025.88;;;27.75;49.74
63395;BME280;49531;-34.520;150.798;2024-03-06T01:12:15;101004.72;;;27.75;49.46
63395;BME280;49531;-34.520;150.798;2024-03-06T01:14:42;100994.69;;;27.84;49.53
63395;BME280;49531;-34.520;150.798;2024-03-06T01:17:10;100992.47;;;27.86;49.57
63395;BME280;49531;-34.520;150.798;2024-03-06T01:19:37;100981.16;;;27.88;49.28
63395;BME280;49531;-34.520;150.798;2024-03-06T01:22:04;100961.44;;;27.86;49.50
63395;BME280;49531;-34.520;150.798;2024-03-06T01:24:31;100967.03;;;27.95;49.68
63395;BME280;49531;-34.520;150.798;2024-03-06T01:26:58;100961.25;;;27.96;49.36
63395;BME280;49531;-34.520;150.798;2024-03-06T01:29:32;100970.88;;;28.07;49.22
63395;BME280;49531;-34.520;150.798;2024-03-06T01:32:00;100962.34;;;28.09;49.28
63395;BME280;49531;-34.520;150.798;2024-03-06T01:34:28;100951.06;;;28.10;49.19
63395;BME280;49531;-34.520;150.798;2024-03-06T01:36:56;100966.91;;;28.13;49.17
63395;BME280;49531;-34.520;150.798;2024-03-06T01:39:23;100958.16;;;28.11;49.27
63395;BME280;49531;-34.520;150.798;2024-03-06T01:41:54;100943.53;;;28.02;49.23
63395;BME280;49531;-34.520;150.798;2024-03-06T01:44:22;100949.81;;;28.16;49.16
63395;BME280;49531;-34.520;150.798;2024-03-06T01:46:49;100935.28;;;28.16;48.83
63395;BME280;49531;-34.520;150.798;2024-03-06T01:49:16;100935.22;;;28.21;49.03
63395;BME280;49531;-34.520;150.798;2024-03-06T01:51:49;100941.91;;;28.29;48.98
63395;BME280;49531;-34.520;150.798;2024-03-06T01:54:18;100933.69;;;28.29;49.26
63395;BME280;49531;-34.520;150.798;2024-03-06T01:56:47;100933.75;;;28.37;48.78
63395;BME280;49531;-34.520;150.798;2024-03-06T01:59:21;100926.66;;;28.36;48.56
63395;BME280;49531;-34.520;150.798;2024-03-06T02:01:55;100912.41;;;28.34;48.77
63395;BME280;49531;-34.520;150.798;2024-03-06T02:04:23;100927.00;;;28.43;49.05
63395;BME280;49531;-34.520;150.798;2024-03-06T02:06:52;100918.25;;;28.41;49.05
63395;BME280;49531;-34.520;150.798;2024-03-06T02:09:20;100915.78;;;28.53;48.92
63395;BME280;49531;-34.520;150.798;2024-03-06T02:11:47;100920.44;;;28.67;49.48
63395;BME280;49531;-34.520;150.798;2024-03-06T02:14:16;100910.94;;;28.73;49.85
63395;BME280;49531;-34.520;150.798;2024-03-06T02:16:44;100907.66;;;28.84;49.92
63395;BME280;49531;-34.520;150.798;2024-03-06T02:19:11;100892.66;;;28.91;50.11
63395;BME280;49531;-34.520;150.798;2024-03-06T02:21:38;100899.22;;;29.03;50.14
63395;BME280;49531;-34.520;150.798;2024-03-06T02:24:05;100896.66;;;29.07;50.33
63395;BME280;49531;-34.520;150.798;2024-03-06T02:26:34;100898.66;;;29.15;50.38
63395;BME280;49531;-34.520;150.798;2024-03-06T02:29:01;100897.38;;;29.21;50.50
63395;BME280;49531;-34.520;150.798;2024-03-06T02:31:29;100893.22;;;29.32;50.38
63395;BME280;49531;-34.520;150.798;2024-03-06T02:33:56;100877.34;;;29.29;50.02
63395;BME280;49531;-34.520;150.798;2024-03-06T02:36:25;100879.97;;;29.34;50.13
63395;BME280;49531;-34.520;150.798;2024-03-06T02:38:52;100870.09;;;29.33;50.03
63395;BME280;49531;-34.520;150.798;2024-03-06T02:41:19;100868.41;;;29.46;49.98
63395;BME280;49531;-34.520;150.798;2024-03-06T02:43:47;100879.75;;;29.53;50.27
63395;BME280;49531;-34.520;150.798;2024-03-06T02:46:14;100860.50;;;29.53;50.27
63395;BME280;49531;-34.520;150.798;2024-03-06T02:48:41;100867.47;;;29.59;50.03
63395;BME280;49531;-34.520;150.798;2024-03-06T02:51:08;100848.63;;;29.44;50.07
63395;BME280;49531;-34.520;150.798;2024-03-06T02:53:35;100861.00;;;29.55;50.10
63395;BME280;49531;-34.520;150.798;2024-03-06T02:56:02;100863.13;;;29.58;50.00
63395;BME280;49531;-34.520;150.798;2024-03-06T02:58:29;100857.44;;;29.55;49.99
63395;BME280;49531;-34.520;150.798;2024-03-06T03:00:57;100862.44;;;29.52;50.20
63395;BME280;49531;-34.520;150.798;2024-03-06T03:03:25;100862.13;;;29.54;49.97
63395;BME280;49531;-34.520;150.798;2024-03-06T03:05:52;100859.06;;;29.56;49.92
63395;BME280;49531;-34.520;150.798;2024-03-06T03:08:19;100854.19;;;29.61;49.90
63395;BME280;49531;-34.520;150.798;2024-03-06T03:10:46;100853.06;;;29.62;49.72
63395;BME280;49531;-34.520;150.798;2024-03-06T03:13:14;100846.28;;;29.68;49.77
63395;BME280;49531;-34.520;150.798;2024-03-06T03:15:41;100825.22;;;29.55;49.93
63395;BME280;49531;-34.520;150.798;2024-03-06T03:18:09;100841.56;;;29.60;49.86
63395;BME280;49531;-34.520;150.798;2024-03-06T03:20:36;100826.97;;;29.60;49.90
63395;BME280;49531;-34.520;150.798;2024-03-06T03:23:03;100839.16;;;29.67;49.62
63395;BME280;49531;-34.520;150.798;2024-03-06T03:25:32;100821.81;;;29.67;49.52
63395;BME280;49531;-34.520;150.798;2024-03-06T03:28:00;100817.94;;;29.68;49.64
63395;BME280;49531;-34.520;150.798;2024-03-06T03:30:27;100807.72;;;29.68;49.64
63395;BME280;49531;-34.520;150.798;2024-03-06T03:32:54;100810.97;;;29.70;49.53
63395;BME280;49531;-34.520;150.798;2024-03-06T03:35:21;100802.72;;;29.70;49.37
63395;BME280;49531;-34.520;150.798;2024-03-06T03:37:51;100806.09;;;29.67;49.65
63395;BME280;49531;-34.520;150.798;2024-03-06T03:40:19;100806.28;;;29.71;49.39
63395;BME280;49531;-34.520;150.798;2024-03-06T03:42:46;100795.59;;;29.69;49.49
63395;BME280;49531;-34.520;150.798;2024-03-06T03:45:14;100796.06;;;29.71;49.63
63395;BME280;49531;-34.520;150.798;2024-03-06T03:47:41;100796.75;;;29.77;49.43
63395;BME280;49531;-34.520;150.798;2024-03-06T03:50:09;100810.34;;;29.73;49.62
63395;BME280;49531;-34.520;150.798;2024-03-06T03:52:37;100791.06;;;29.73;49.63
63395;BME280;49531;-34.520;150.798;2024-03-06T03:55:08;100793.50;;;29.75;49.35
63395;BME280;49531;-34.520;150.798;2024-03-06T03:57:35;100798.84;;;29.80;49.70
63395;BME280;49531;-34.520;150.798;2024-03-06T04:00:06;100782.16;;;29.76;49.70
63395;BME280;49531;-34.520;150.798;2024-03-06T04:02:37;100776.00;;;29.79;49.14
63395;BME280;49531;-34.520;150.798;2024-03-06T04:05:04;100782.50;;;29.83;49.32
63395;BME280;49531;-34.520;150.798;2024-03-06T04:07:32;100773.91;;;29.85;49.30
63395;BME280;49531;-34.520;150.798;2024-03-06T04:09:59;100766.13;;;29.78;49.54
63395;BME280;49531;-34.520;150.798;2024-03-06T04:12:27;100771.16;;;29.85;49.02
63395;BME280;49531;-34.520;150.798;2024-03-06T04:14:54;100775.06;;;29.93;49.32
63395;BME280;49531;-34.520;150.798;2024-03-06T04:17:21;100767.94;;;29.92;49.40
63395;BME280;49531;-34.520;150.798;2024-03-06T04:19:48;100782.19;;;29.94;49.72
63395;BME280;49531;-34.520;150.798;2024-03-06T04:22:19;100765.66;;;29.94;49.54
63395;BME280;49531;-34.520;150.798;2024-03-06T04:24:46;100766.81;;;29.93;49.79
63395;BME280;49531;-34.520;150.798;2024-03-06T04:27:13;100771.19;;;29.94;49.94
63395;BME280;49531;-34.520;150.798;2024-03-06T04:29:42;100772.31;;;29.93;49.93
63395;BME280;49531;-34.520;150.798;2024-03-06T04:32:09;100768.91;;;29.96;49.78
63395;BME280;49531;-34.520;150.798;2024-03-06T04:34:36;100760.16;;;29.94;49.74
63395;BME280;49531;-34.520;150.798;2024-03-06T04:37:03;100747.84;;;29.91;49.76
63395;BME280;49531;-34.520;150.798;2024-03-06T04:39:31;100752.38;;;29.96;49.92
63395;BME280;49531;-34.520;150.798;2024-03-06T04:41:58;100750.13;;;29.98;49.96
63395;BME280;49531;-34.520;150.798;2024-03-06T04:44:25;100756.13;;;30.00;49.73
63395;BME280;49531;-34.520;150.798;2024-03-06T04:46:53;100753.34;;;30.00;49.97
63395;BME280;49531;-34.520;150.798;2024-03-06T04:49:20;100750.44;;;30.05;49.93
63395;BME280;49531;-34.520;150.798;2024-03-06T04:51:47;100754.00;;;30.05;50.06
63395;BME280;49531;-34.520;150.798;2024-03-06T04:54:14;100747.69;;;30.05;49.96
63395;BME280;49531;-34.520;150.798;2024-03-06T04:56:41;100747.69;;;30.05;49.75
63395;BME280;49531;-34.520;150.798;2024-03-06T04:59:09;100743.31;;;30.04;50.03
63395;BME280;49531;-34.520;150.798;2024-03-06T05:01:36;100742.03;;;30.10;49.95
63395;BME280;49531;-34.520;150.798;2024-03-06T05:04:03;100738.13;;;30.11;49.49
63395;BME280;49531;-34.520;150.798;2024-03-06T05:06:30;100745.59;;;30.19;49.88
63395;BME280;49531;-34.520;150.798;2024-03-06T05:08:57;100738.28;;;30.23;49.91
63395;BME280;49531;-34.520;150.798;2024-03-06T05:11:24;100736.34;;;30.24;49.89
63395;BME280;49531;-34.520;150.798;2024-03-06T05:13:51;100735.69;;;30.27;50.05
63395;BME280;49531;-34.520;150.798;2024-03-06T05:16:18;100737.81;;;30.21;49.77
63395;BME280;49531;-34.520;150.798;2024-03-06T05:18:45;100733.44;;;30.11;49.98
63395;BME280;49531;-34.520;150.798;2024-03-06T05:21:13;100753.19;;;30.22;50.18
63395;BME280;49531;-34.520;150.798;2024-03-06T05:23:40;100749.47;;;30.18;50.27
63395;BME280;49531;-34.520;150.798;2024-03-06T05:26:07;100748.34;;;30.19;50.00
63395;BME280;49531;-34.520;150.798;2024-03-06T05:28:34;100745.75;;;30.23;50.03
63395;BME280;49531;-34.520;150.798;2024-03-06T05:31:13;100751.41;;;30.26;49.63
63395;BME280;49531;-34.520;150.798;2024-03-06T05:33:42;100737.31;;;30.19;49.91
63395;BME280;49531;-34.520;150.798;2024-03-06T05:36:10;100746.56;;;30.23;50.10
63395;BME280;49531;-34.520;150.798;2024-03-06T05:38:39;100737.47;;;30.14;50.10
63395;BME280;49531;-34.520;150.798;2024-03-06T05:41:07;100739.44;;;30.13;50.30
63395;BME280;49531;-34.520;150.798;2024-03-06T05:43:35;100729.22;;;30.14;50.00
63395;BME280;49531;-34.520;150.798;2024-03-06T05:46:02;100729.22;;;30.14;49.98
63395;BME280;49531;-34.520;150.798;2024-03-06T05:48:31;100736.50;;;30.10;50.36
63395;BME280;49531;-34.520;150.798;2024-03-06T05:50:59;100748.50;;;30.14;50.39
63395;BME280;49531;-34.520;150.798;2024-03-06T05:53:26;100736.66;;;30.05;50.37
63395;BME280;49531;-34.520;150.798;2024-03-06T05:55:54;100740.72;;;30.16;50.29
63395;BME280;49531;-34.520;150.798;2024-03-06T05:58:21;100743.81;;;30.06;50.47
63395;BME280;49531;-34.520;150.798;2024-03-06T06:00:48;100750.13;;;30.15;50.52
63395;BME280;49531;-34.520;150.798;2024-03-06T06:03:17;100747.38;;;30.15;50.94
63395;BME280;49531;-34.520;150.798;2024-03-06T06:05:44;100739.25;;;30.10;51.25
63395;BME280;49531;-34.520;150.798;2024-03-06T06:08:12;100738.94;;;30.20;50.77
63395;BME280;49531;-34.520;150.798;2024-03-06T06:10:39;100737.63;;;30.17;50.74
63395;BME280;49531;-34.520;150.798;2024-03-06T06:13:07;100747.19;;;30.20;50.52
63395;BME280;49531;-34.520;150.798;2024-03-06T06:15:34;100751.09;;;30.10;50.86
63395;BME280;49531;-34.520;150.798;2024-03-06T06:18:01;100751.09;;;30.02;50.87
63395;BME280;49531;-34.520;150.798;2024-03-06T06:20:29;100752.38;;;29.96;51.23
63395;BME280;49531;-34.520;150.798;2024-03-06T06:22:56;100756.91;;;29.92;51.45
63395;BME280;49531;-34.520;150.798;2024-03-06T06:25:24;100749.13;;;29.94;51.68
63395;BME280;49531;-34.520;150.798;2024-03-06T06:27:51;100763.56;;;29.91;51.97
63395;BME280;49531;-34.520;150.798;2024-03-06T06:30:18;100761.28;;;29.84;52.24
63395;BME280;49531;-34.520;150.798;2024-03-06T06:32:46;100770.38;;;29.93;51.92
63395;BME280;49531;-34.520;150.798;2024-03-06T06:35:13;100765.19;;;29.92;51.92
63395;BME280;49531;-34.520;150.798;2024-03-06T06:37:41;100771.66;;;29.96;51.09
63395;BME280;49531;-34.520;150.798;2024-03-06T06:40:10;100762.75;;;29.90;51.28
63395;BME280;49531;-34.520;150.798;2024-03-06T06:42:44;100778.13;;;29.91;51.34
63395;BME280;49531;-34.520;150.798;2024-03-06T06:45:16;100762.72;;;29.81;51.63
63395;BME280;49531;-34.520;150.798;2024-03-06T06:47:44;100775.38;;;29.82;51.83
63395;BME280;49531;-34.520;150.798;2024-03-06T06:50:11;100774.22;;;29.75;52.10
63395;BME280;49531;-34.520;150.798;2024-03-06T06:52:42;100774.06;;;29.71;51.64
63395;BME280;49531;-34.520;150.798;2024-03-06T06:55:10;100767.09;;;29.74;51.51
63395;BME280;49531;-34.520;150.798;2024-03-06T06:57:38;100782.81;;;29.73;51.70
63395;BME280;49531;-34.520;150.798;2024-03-06T07:00:06;100766.59;;;29.63;51.81
63395;BME280;49531;-34.520;150.798;2024-03-06T07:02:44;100778.72;;;29.62;52.17
63395;BME280;49531;-34.520;150.798;2024-03-06T07:05:11;100788.13;;;29.61;52.20
63395;BME280;49531;-34.520;150.798;2024-03-06T07:07:39;100783.28;;;29.58;52.36
63395;BME280;49531;-34.520;150.798;2024-03-06T07:10:07;100782.94;;;29.60;52.14
63395;BME280;49531;-34.520;150.798;2024-03-06T07:12:35;100781.31;;;29.50;52.42
63395;BME280;49531;-34.520;150.798;2024-03-06T07:15:03;100790.22;;;29.56;52.32
63395;BME280;49531;-34.520;150.798;2024-03-06T07:17:30;100773.06;;;29.50;52.04
63395;BME280;49531;-34.520;150.798;2024-03-06T07:19:57;100779.88;;;29.52;52.39
63395;BME280;49531;-34.520;150.798;2024-03-06T07:22:24;100787.78;;;29.45;52.44
63395;BME280;49531;-34.520;150.798;2024-03-06T07:24:52;100776.59;;;29.42;52.74
63395;BME280;49531;-34.520;150.798;2024-03-06T07:27:19;100782.25;;;29.45;52.88
63395;BME280;49531;-34.520;150.798;2024-03-06T07:29:46;100783.50;;;29.39;52.70
63395;BME280;49531;-34.520;150.798;2024-03-06T07:32:13;100788.84;;;29.36;52.97
63395;BME280;49531;-34.520;150.798;2024-03-06T07:34:40;100790.63;;;29.40;52.82
63395;BME280;49531;-34.520;150.798;2024-03-06T07:37:07;100777.97;;;29.31;52.75
63395;BME280;49531;-34.520;150.798;2024-03-06T07:39:34;100776.34;;;29.30;52.84
63395;BME280;49531;-34.520;150.798;2024-03-06T07:42:01;100772.97;;;29.33;53.17
63395;BME280;49531;-34.520;150.798;2024-03-06T07:44:29;100779.91;;;29.30;52.96
63395;BME280;49531;-34.520;150.798;2024-03-06T07:46:56;100778.94;;;29.26;53.17
63395;BME280;49531;-34.520;150.798;2024-03-06T07:49:23;100793.00;;;29.25;53.37
63395;BME280;49531;-34.520;150.798;2024-03-06T07:51:50;100791.88;;;29.26;53.38
63395;BME280;49531;-34.520;150.798;2024-03-06T07:54:17;100786.19;;;29.22;53.19
63395;BME280;49531;-34.520;150.798;2024-03-06T07:56:45;100782.13;;;29.19;53.14
63395;BME280;49531;-34.520;150.798;2024-03-06T07:59:12;100782.31;;;29.14;53.10
63395;BME280;49531;-34.520;150.798;2024-03-06T08:01:41;100784.06;;;29.10;53.60
63395;BME280;49531;-34.520;150.798;2024-03-06T08:04:08;100793.13;;;29.19;53.39
63395;BME280;49531;-34.520;150.798;2024-03-06T08:06:35;100787.97;;;29.18;53.62
63395;BME280;49531;-34.520;150.798;2024-03-06T08:09:04;100787.97;;;29.18;53.51
63395;BME280;49531;-34.520;150.798;2024-03-06T08:11:33;100797.38;;;29.17;53.72
63395;BME280;49531;-34.520;150.798;2024-03-06T08:14:00;100795.06;;;29.10;53.60
63395;BME280;49531;-34.520;150.798;2024-03-06T08:16:31;100787.75;;;29.06;53.54
63395;BME280;49531;-34.520;150.798;2024-03-06T08:18:59;100803.13;;;29.07;53.69
63395;BME280;49531;-34.520;150.798;2024-03-06T08:21:26;100806.53;;;29.04;53.60
63395;BME280;49531;-34.520;150.798;2024-03-06T08:23:54;100806.69;;;29.07;53.59
63395;BME280;49531;-34.520;150.798;2024-03-06T08:26:22;100792.00;;;29.12;53.26
63395;BME280;49531;-34.520;150.798;2024-03-06T08:28:49;100797.56;;;29.29;53.01
63395;BME280;49531;-34.520;150.798;2024-03-06T08:31:18;100796.47;;;29.39;52.61
63395;BME280;49531;-34.520;150.798;2024-03-06T08:33:45;100790.53;;;29.45;52.45
63395;BME280;49531;-34.520;150.798;2024-03-06T08:36:13;100796.06;;;29.54;52.03
63395;BME280;49531;-34.520;150.798;2024-03-06T08:38:40;100806.91;;;29.59;52.07
63395;BME280;49531;-34.520;150.798;2024-03-06T08:41:10;100794.94;;;29.55;52.04
63395;BME280;49531;-34.520;150.798;2024-03-06T08:43:37;100805.44;;;29.62;51.86
63395;BME280;49531;-34.520;150.798;2024-03-06T08:46:04;100792.81;;;29.52;51.83
63395;BME280;49531;-34.520;150.798;2024-03-06T08:48:31;100809.50;;;29.64;51.65
63395;BME280;49531;-34.520;150.798;2024-03-06T08:50:59;100804.16;;;29.68;51.64
63395;BME280;49531;-34.520;150.798;2024-03-06T08:53:26;100799.47;;;29.68;51.52
63395;BME280;49531;-34.520;150.798;2024-03-06T08:55:53;100799.97;;;29.70;51.71
63395;BME280;49531;-34.520;150.798;2024-03-06T08:58:20;100805.47;;;29.70;51.67
63395;BME280;49531;-34.520;150.798;2024-03-06T09:00:47;100802.22;;;29.68;51.30
63395;BME280;49531;-34.520;150.798;2024-03-06T09:03:15;100809.03;;;29.71;51.52
63395;BME280;49531;-34.520;150.798;2024-03-06T09:05:42;100809.84;;;29.71;51.50
63395;BME280;49531;-34.520;150.798;2024-03-06T09:08:09;100802.06;;;29.65;51.40
63395;BME280;49531;-34.520;150.798;2024-03-06T09:10:38;100822.00;;;29.70;51.53
63395;BME280;49531;-34.520;150.798;2024-03-06T09:13:05;100816.81;;;29.69;51.39
63395;BME280;49531;-34.520;150.798;2024-03-06T09:15:32;100825.56;;;29.71;51.21
63395;BME280;49531;-34.520;150.798;2024-03-06T09:17:59;100826.19;;;29.68;51.29
63395;BME280;49531;-34.520;150.798;2024-03-06T09:20:26;100827.31;;;29.67;51.22
63395;BME280;49531;-34.520;150.798;2024-03-06T09:22:53;100821.97;;;29.62;51.33
63395;BME280;49531;-34.520;150.798;2024-03-06T09:25:23;100841.91;;;29.67;51.38
63395;BME280;49531;-34.520;150.798;2024-03-06T09:27:50;100830.53;;;29.60;51.45
63395;BME280;49531;-34.520;150.798;2024-03-06T09:30:17;100846.91;;;29.65;51.64
63395;BME280;49531;-34.520;150.798;2024-03-06T09:32:44;100840.28;;;29.58;51.39
63395;BME280;49531;-34.520;150.798;2024-03-06T09:35:14;100861.00;;;29.64;51.19
63395;BME280;49531;-34.520;150.798;2024-03-06T09:37:41;100848.84;;;29.56;51.67
63395;BME280;49531;-34.520;150.798;2024-03-06T09:40:10;100855.50;;;29.55;51.41
63395;BME280;49531;-34.520;150.798;2024-03-06T09:42:38;100865.06;;;29.58;51.45
63395;BME280;49531;-34.520;150.798;2024-03-06T09:45:05;100869.25;;;29.55;51.56
63395;BME280;49531;-34.520;150.798;2024-03-06T09:47:36;100860.13;;;29.46;51.84
63395;BME280;49531;-34.520;150.798;2024-03-06T09:50:09;100868.91;;;29.48;51.46
63395;BME280;49531;-34.520;150.798;2024-03-06T09:52:36;100872.94;;;29.50;51.86
63395;BME280;49531;-34.520;150.798;2024-03-06T09:55:06;100881.22;;;29.50;51.67
63395;BME280;49531;-34.520;150.798;2024-03-06T09:57:36;100882.34;;;29.49;51.60
63395;BME280;49531;-34.520;150.798;2024-03-06T10:00:03;100885.41;;;29.48;51.77
63395;BME280;49531;-34.520;150.798;2024-03-06T10:02:41;100887.16;;;29.44;51.76
63395;BME280;49531;-34.520;150.798;2024-03-06T10:05:23;100886.03;;;29.45;52.01
63395;BME280;49531;-34.520;150.798;2024-03-06T10:07:53;100878.69;;;29.40;51.58
63395;BME280;49531;-34.520;150.798;2024-03-06T10:10:21;100886.34;;;29.43;51.75
63395;BME280;49531;-34.520;150.798;2024-03-06T10:12:53;100884.19;;;29.40;51.59
63395;BME280;49531;-34.520;150.798;2024-03-06T10:15:20;100889.44;;;29.42;51.58
63395;BME280;49531;-34.520;150.798;2024-03-06T10:17:48;100884.84;;;29.37;51.80
63395;BME280;49531;-34.520;150.798;2024-03-06T10:20:25;100896.66;;;29.38;51.83
63395;BME280;49531;-34.520;150.798;2024-03-06T10:22:54;100887.72;;;29.32;51.85
63395;BME280;49531;-34.520;150.798;2024-03-06T10:25:22;100910.22;;;29.34;51.90
63395;BME280;49531;-34.520;150.798;2024-03-06T10:28:09;100914.59;;;29.35;51.72
63395;BME280;49531;-34.520;150.798;2024-03-06T10:30:38;100914.44;;;29.32;51.94
63395;BME280;49531;-34.520;150.798;2024-03-06T10:33:08;100914.13;;;29.33;52.06
63395;BME280;49531;-34.520;150.798;2024-03-06T10:35:36;100912.19;;;29.34;51.96
63395;BME280;49531;-34.520;150.798;2024-03-06T10:38:05;100907.13;;;29.27;52.02
63395;BME280;49531;-34.520;150.798;2024-03-06T10:40:34;100909.56;;;29.29;52.04
63395;BME280;49531;-34.520;150.798;2024-03-06T10:43:04;100905.50;;;29.26;51.86
63395;BME280;49531;-34.520;150.798;2024-03-06T10:45:50;100914.56;;;29.27;52.09
63395;BME280;49531;-34.520;150.798;2024-03-06T10:48:18;100909.38;;;29.25;52.07
63395;BME280;49531;-34.520;150.798;2024-03-06T10:50:47;100912.94;;;29.26;52.16
63395;BME280;49531;-34.520;150.798;2024-03-06T10:53:16;100911.31;;;29.25;52.08
63395;BME280;49531;-34.520;150.798;2024-03-06T10:55:45;100914.06;;;29.25;52.04
63395;BME280;49531;-34.520;150.798;2024-03-06T10:58:12;100915.50;;;29.22;52.04
63395;BME280;49531;-34.520;150.798;2024-03-06T11:00:41;100915.81;;;29.20;52.14
63395;BME280;49531;-34.520;150.798;2024-03-06T11:03:09;100908.22;;;29.17;52.03
63395;BME280;49531;-34.520;150.798;2024-03-06T11:05:41;100906.75;;;29.20;52.47
63395;BME280;49531;-34.520;150.798;2024-03-06T11:08:09;100924.63;;;29.31;52.16
63395;BME280;49531;-34.520;150.798;2024-03-06T11:10:39;100915.69;;;29.26;52.04
63395;BME280;49531;-34.520;150.798;2024-03-06T11:13:22;100907.56;;;29.20;52.22
63395;BME280;49531;-34.520;150.798;2024-03-06T11:15:53;100911.28;;;29.16;52.56
63395;BME280;49531;-34.520;150.798;2024-03-06T11:27:03;100911.22;;;29.07;52.45
63395;BME280;49531;-34.520;150.798;2024-03-06T11:30:09;100914.47;;;29.09;52.72
63395;BME280;49531;-34.520;150.798;2024-03-06T11:33:01;100915.59;;;29.08;52.48
63395;BME280;49531;-34.520;150.798;2024-03-06T11:35:28;100910.22;;;29.03;52.59
63395;BME280;49531;-34.520;150.798;2024-03-06T11:37:56;100917.34;;;29.04;52.92
63395;BME280;49531;-34.520;150.798;2024-03-06T11:40:24;100908.28;;;29.04;52.65
63395;BME280;49531;-34.520;150.798;2024-03-06T11:42:51;100910.53;;;29.02;52.77
63395;BME280;49531;-34.520;150.798;2024-03-06T11:45:19;100910.84;;;29.00;52.91
63395;BME280;49531;-34.520;150.798;2024-03-06T11:48:10;100890.91;;;28.95;52.62
63395;BME280;49531;-34.520;150.798;2024-03-06T11:50:43;100917.47;;;28.99;52.62
63395;BME280;49531;-34.520;150.798;2024-03-06T11:53:12;100915.03;;;28.98;52.63
63395;BME280;49531;-34.520;150.798;2024-03-06T11:55:39;100916.66;;;28.99;52.60
63395;BME280;49531;-34.520;150.798;2024-03-06T11:58:06;100910.66;;;28.97;52.75
63395;BME280;49531;-34.520;150.798;2024-03-06T12:00:34;100914.84;;;28.94;53.00
63395;BME280;49531;-34.520;150.798;2024-03-06T12:03:01;100906.72;;;28.89;52.74
63395;BME280;49531;-34.520;150.798;2024-03-06T12:05:30;100921.47;;;28.93;53.04
63395;BME280;49531;-34.520;150.798;2024-03-06T12:07:57;100907.84;;;28.88;52.97
63395;BME280;49531;-34.520;150.798;2024-03-06T12:10:25;100914.34;;;28.92;52.86
63395;BME280;49531;-34.520;150.798;2024-03-06T12:12:52;100905.09;;;28.88;52.65
63395;BME280;49531;-34.520;150.798;2024-03-06T12:15:19;100913.03;;;28.90;52.97
63395;BME280;49531;-34.520;150.798;2024-03-06T12:17:50;100902.66;;;28.86;52.85
63395;BME280;49531;-34.520;150.798;2024-03-06T12:20:18;100904.59;;;28.86;52.82
63395;BME280;49531;-34.520;150.798;2024-03-06T12:22:57;100890.84;;;28.86;52.94
63395;BME280;49531;-34.520;150.798;2024-03-06T12:25:26;100900.22;;;28.85;52.74
63395;BME280;49531;-34.520;150.798;2024-03-06T12:27:54;100888.84;;;28.78;52.59
63395;BME280;49531;-34.520;150.798;2024-03-06T12:30:23;100891.47;;;28.83;52.60
63395;BME280;49531;-34.520;150.798;2024-03-06T12:33:02;100895.63;;;28.80;52.54
63395;BME280;49531;-34.520;150.798;2024-03-06T12:35:31;100893.84;;;28.76;52.51